Time;durP1;ratioP1;P1;durP2;ratioP2;P2;SDS_P1;SDS_P2;PMS_P1;PMS_P2;Temp;Humidity;BMP_temperature;BMP_pressure;BME280_temperature;BME280_humidity;BME280_pressure;Samples;Min_cycle;Max_cycle;Signal;HPM_P1;HPM_P2
2021/07/03 00:01:30;;;;;;;8.43;3.70;;;;;;;21.14;73.90;98771.52;1710271;83;21045;-75
2021/07/03 00:03:56;;;;;;;8.70;6.78;;;;;;;21.16;73.72;98770.58;1682133;83;21999;-75
2021/07/03 00:06:23;;;;;;;6.75;3.52;;;;;;;21.13;73.91;98776.74;1687792;83;21537;-74
2021/07/03 00:08:52;;;;;;;6.95;3.67;;;;;;;21.12;73.96;98781.95;1674558;85;21055;-73
2021/07/03 00:11:20;;;;;;;5.42;2.52;;;;;;;21.06;73.99;98771.00;1676766;84;21098;-73
2021/07/03 00:13:48;;;;;;;7.75;2.52;;;;;;;21.08;74.18;98773.41;1679890;84;21509;-75
2021/07/03 00:16:15;;;;;;;5.78;3.35;;;;;;;21.13;74.10;98775.91;1700947;84;21518;-71
2021/07/03 00:18:43;;;;;;;5.85;2.60;;;;;;;21.11;74.18;98773.51;1704425;84;21069;-72
2021/07/03 00:21:09;;;;;;;2.77;2.30;;;;;;;21.12;74.37;98768.27;1704353;84;21008;-73
2021/07/03 00:23:36;;;;;;;6.40;2.95;;;;;;;21.10;74.30;98764.30;1703731;84;21047;-73
2021/07/03 00:26:02;;;;;;;4.92;3.00;;;;;;;21.10;74.47;98768.41;1674553;85;21539;-73
2021/07/03 00:28:29;;;;;;;4.25;2.70;;;;;;;21.12;74.55;98762.80;1674809;85;21132;-69
2021/07/03 00:30:56;;;;;;;7.70;2.65;;;;;;;21.12;74.65;98766.11;1646038;85;22446;-72
2021/07/03 00:33:23;;;;;;;3.52;2.92;;;;;;;21.09;74.79;98766.23;1681921;84;21501;-70
2021/07/03 00:35:49;;;;;;;5.40;3.05;;;;;;;21.06;75.24;98771.56;1688322;83;21072;-75
2021/07/03 00:38:16;;;;;;;5.87;3.08;;;;;;;21.03;75.66;98762.12;1715514;83;21047;-75
2021/07/03 00:40:43;;;;;;;5.40;3.00;;;;;;;21.01;75.89;98757.55;1713064;83;21137;-74
2021/07/03 00:43:10;;;;;;;9.43;3.25;;;;;;;20.98;76.47;98753.34;1700452;84;21592;-72
2021/07/03 00:45:38;;;;;;;7.03;2.25;;;;;;;20.86;77.57;98751.42;1700575;84;21054;-74
2021/07/03 00:48:05;;;;;;;4.78;3.25;;;;;;;20.78;77.86;98747.63;1700644;84;21014;-75
2021/07/03 00:50:32;;;;;;;3.35;2.85;;;;;;;20.71;78.09;98736.48;1676668;84;21095;-74
2021/07/03 00:52:59;;;;;;;5.22;2.90;;;;;;;20.65;78.64;98735.09;1675729;84;21119;-76
2021/07/03 00:55:27;;;;;;;7.95;4.35;;;;;;;20.65;79.40;98743.30;1700698;84;20972;-76
2021/07/03 00:57:54;;;;;;;5.67;3.58;;;;;;;20.67;78.88;98738.27;1667007;86;21035;-76
2021/07/03 01:00:22;;;;;;;6.22;2.80;;;;;;;20.70;78.96;98732.71;1652711;86;21064;-75
2021/07/03 01:02:50;;;;;;;4.03;3.02;;;;;;;20.69;79.31;98731.11;1652266;86;21029;-75
2021/07/03 01:05:16;;;;;;;9.18;3.55;;;;;;;20.68;79.04;98736.34;1651332;86;21043;-75
2021/07/03 01:07:43;;;;;;;5.00;2.42;;;;;;;20.63;79.36;98731.09;1652037;86;21553;-75
2021/07/03 01:10:24;;;;;;;7.50;4.55;;;;;;;20.57;79.75;98733.27;1652180;86;21024;-75
2021/07/03 01:12:52;;;;;;;5.25;2.62;;;;;;;20.60;80.01;98731.78;1651616;86;21502;-75
2021/07/03 01:15:19;;;;;;;6.28;3.58;;;;;;;20.54;80.30;98725.73;1631500;86;21516;-76
2021/07/03 01:17:45;;;;;;;5.08;3.27;;;;;;;20.49;80.96;98728.69;1648001;86;21094;-74
2021/07/03 01:20:15;;;;;;;7.10;4.12;;;;;;;20.42;81.37;98727.09;1678587;85;20966;-77
2021/07/03 01:22:43;;;;;;;5.33;3.10;;;;;;;20.35;82.01;98725.46;1678857;85;21028;-75
2021/07/03 01:25:14;;;;;;;5.95;3.02;;;;;;;20.32;81.87;98720.69;1665484;84;21006;-75
2021/07/03 01:27:41;;;;;;;4.83;3.17;;;;;;;20.30;82.08;98721.02;1678996;85;21045;-74
2021/07/03 01:30:10;;;;;;;3.85;3.15;;;;;;;20.29;82.23;98724.05;1678664;85;22896;-74
2021/07/03 01:32:37;;;;;;;5.22;3.00;;;;;;;20.31;82.39;98728.08;1678694;85;21042;-74
2021/07/03 01:35:06;;;;;;;3.60;2.75;;;;;;;20.38;82.30;98720.12;1675127;85;21038;-74
2021/07/03 01:37:34;;;;;;;6.40;4.37;;;;;;;20.46;82.17;98717.08;1688059;84;21044;-74
2021/07/03 01:40:04;;;;;;;7.47;4.25;;;;;;;20.54;82.09;98715.38;1660498;85;21052;-73
2021/07/03 01:42:31;;;;;;;6.30;3.45;;;;;;;20.58;81.60;98704.79;1644375;87;21164;-74
2021/07/03 01:44:59;;;;;;;3.80;3.42;;;;;;;20.52;82.07;98704.00;1661256;85;20960;-74
2021/07/03 01:47:26;;;;;;;6.17;3.20;;;;;;;20.38;82.64;98703.73;1690793;84;20957;-74
2021/07/03 01:49:53;;;;;;;8.03;3.75;;;;;;;20.33;83.21;98707.27;1690796;84;21025;-73
2021/07/03 01:52:20;;;;;;;4.17;3.77;;;;;;;20.30;83.17;98721.02;1690918;84;21017;-73
2021/07/03 01:54:50;;;;;;;5.83;4.53;;;;;;;20.32;82.95;98720.69;1690425;84;21470;-73
2021/07/03 01:57:18;;;;;;;9.38;3.87;;;;;;;20.31;83.06;98723.98;1690752;84;21482;-74
2021/07/03 02:00:07;;;;;;;5.78;3.35;;;;;;;20.34;83.13;98721.13;1688894;84;21498;-74
2021/07/03 02:02:34;;;;;;;5.97;3.00;;;;;;;20.44;83.11;98720.14;1690760;84;21053;-76
2021/07/03 02:05:02;;;;;;;11.40;8.53;;;;;;;20.52;82.81;98723.13;1690849;84;21470;-76
2021/07/03 02:07:29;;;;;;;14.53;6.08;;;;;;;20.58;82.46;98721.75;1690962;84;21158;-74
2021/07/03 02:09:56;;;;;;;19.35;4.22;;;;;;;20.64;82.29;98723.13;1691517;84;21036;-76
2021/07/03 02:12:24;;;;;;;8.60;3.67;;;;;;;20.66;81.84;98720.30;1690725;84;21554;-76
2021/07/03 02:14:53;;;;;;;3.33;2.85;;;;;;;20.71;81.93;98727.48;1689564;84;21513;-75
2021/07/03 02:17:22;;;;;;;11.85;3.72;;;;;;;20.69;81.73;98727.81;1686486;84;21047;-74
2021/07/03 02:19:48;;;;;;;4.03;3.37;;;;;;;20.69;81.89;98729.18;1690831;84;21152;-76
2021/07/03 02:22:17;;;;;;;6.20;4.10;;;;;;;20.75;81.54;98727.03;1690424;84;20949;-74
2021/07/03 02:24:45;;;;;;;5.80;4.25;;;;;;;20.75;81.46;98728.39;1690362;84;20968;-75
2021/07/03 02:27:12;;;;;;;4.45;3.42;;;;;;;20.73;81.58;98739.66;1690733;84;21010;-76
2021/07/03 02:29:39;;;;;;;6.62;4.28;;;;;;;20.73;81.72;98737.48;1690780;84;21025;-75
2021/07/03 02:32:07;;;;;;;13.18;9.40;;;;;;;20.72;81.86;98733.19;1690847;84;21130;-75
2021/07/03 02:34:35;;;;;;;7.60;3.67;;;;;;;20.75;82.00;98737.39;1690548;84;21058;-76
2021/07/03 02:37:04;;;;;;;5.80;3.70;;;;;;;20.75;81.72;98729.19;1682957;84;21082;-74
2021/07/03 02:39:32;;;;;;;3.58;3.12;;;;;;;20.80;82.17;98730.91;1672851;85;21552;-74
2021/07/03 02:41:59;;;;;;;5.65;3.05;;;;;;;20.86;82.04;98729.55;1672771;85;21053;-74
2021/07/03 02:44:26;;;;;;;6.50;3.35;;;;;;;20.92;81.70;98732.27;1672805;85;21157;-75
2021/07/03 02:46:54;;;;;;;5.17;3.75;;;;;;;20.95;81.57;98744.47;1672731;85;20992;-74
2021/07/03 02:49:25;;;;;;;14.68;5.00;;;;;;;20.97;81.62;98746.27;1673030;85;20989;-76
2021/07/03 02:51:53;;;;;;;4.72;3.90;;;;;;;21.02;81.47;98755.62;1673149;85;20943;-75
2021/07/03 02:54:20;;;;;;;6.97;4.50;;;;;;;21.02;81.44;98756.42;1673282;85;21081;-75
2021/07/03 02:56:47;;;;;;;8.98;4.12;;;;;;;20.95;81.75;98752.67;1645636;87;22412;-75
2021/07/03 02:59:14;;;;;;;9.23;4.50;;;;;;;20.91;82.10;98753.90;1645564;87;20989;-75
2021/07/03 03:01:42;;;;;;;6.47;4.40;;;;;;;20.88;82.29;98744.45;1670851;85;21007;-74
2021/07/03 03:04:10;;;;;;;6.33;4.03;;;;;;;20.85;82.55;98751.18;1672855;85;21503;-74
2021/07/03 03:06:37;;;;;;;5.45;3.67;;;;;;;20.87;82.67;98752.42;1672828;85;21081;-75
2021/07/03 03:09:04;;;;;;;10.63;4.00;;;;;;;20.96;82.67;98750.17;1673002;85;21842;-75
2021/07/03 03:11:32;;;;;;;8.50;4.42;;;;;;;20.98;82.42;98747.88;1672807;85;21000;-74
2021/07/03 03:13:59;;;;;;;6.85;4.55;;;;;;;20.94;82.53;98745.60;1672714;85;21046;-73
2021/07/03 03:16:29;;;;;;;6.67;4.87;;;;;;;20.78;83.83;98743.53;1672682;85;21040;-74
2021/07/03 03:18:59;;;;;;;4.90;4.40;;;;;;;20.60;85.08;98747.61;1672921;85;20985;-74
2021/07/03 03:21:27;;;;;;;9.15;4.75;;;;;;;20.51;85.94;98750.20;1672684;85;21963;-75
2021/07/03 03:23:55;;;;;;;8.85;4.22;;;;;;;20.52;85.79;98755.91;1672723;85;21037;-75
2021/07/03 03:26:23;;;;;;;5.42;4.30;;;;;;;20.55;85.91;98744.30;1672749;85;20970;-75
2021/07/03 03:28:50;;;;;;;8.63;5.03;;;;;;;20.59;86.33;98748.73;1662675;86;21627;-74
2021/07/03 03:31:18;;;;;;;5.95;5.05;;;;;;;20.65;86.54;98746.59;1672909;85;21080;-74
2021/07/03 03:33:47;;;;;;;7.33;6.00;;;;;;;20.71;86.65;98754.81;1672934;85;21846;-75
2021/07/03 03:36:14;;;;;;;10.93;4.87;;;;;;;20.76;86.47;98754.59;1673350;85;22282;-74
2021/07/03 03:38:43;;;;;;;8.43;5.03;;;;;;;20.88;86.25;98761.42;1691243;84;20957;-74
2021/07/03 03:41:11;;;;;;;8.13;6.03;;;;;;;20.99;85.62;98758.48;1691127;84;21024;-74
2021/07/03 03:43:39;;;;;;;4.55;4.12;;;;;;;21.03;85.20;98759.95;1691018;84;21102;-74
2021/07/03 03:46:08;;;;;;;7.40;5.40;;;;;;;21.06;85.02;98765.53;1668770;84;21142;-72
2021/07/03 03:48:35;;;;;;;5.47;4.90;;;;;;;21.14;84.63;98766.61;1690975;84;21013;-75
2021/07/03 03:51:05;;;;;;;5.97;4.70;;;;;;;21.22;83.91;98767.85;1691066;84;20938;-74
2021/07/03 03:53:33;;;;;;;5.40;4.50;;;;;;;21.22;83.46;98765.12;1690722;84;21061;-73
2021/07/03 03:56:00;;;;;;;10.10;5.40;;;;;;;21.14;83.50;98767.97;1672747;85;21083;-75
2021/07/03 03:58:29;;;;;;;11.97;8.25;;;;;;;21.09;83.90;98767.59;1673650;85;21163;-75
2021/07/03 04:00:57;;;;;;;10.85;5.45;;;;;;;21.11;84.07;98758.47;1673767;85;20972;-75
2021/07/03 04:03:24;;;;;;;8.75;5.33;;;;;;;21.13;83.80;98765.80;1673541;85;21059;-74
2021/07/03 04:05:51;;;;;;;7.90;5.92;;;;;;;21.14;83.82;98764.67;1673597;85;21068;-76
2021/07/03 04:08:20;;;;;;;11.38;5.50;;;;;;;20.99;84.65;98769.98;1673833;85;21087;-75
2021/07/03 04:10:48;;;;;;;8.75;6.67;;;;;;;20.85;85.92;98768.95;1673668;85;21224;-75
2021/07/03 04:13:15;;;;;;;7.40;5.80;;;;;;;20.75;86.52;98771.55;1673481;85;21537;-77
2021/07/03 04:15:43;;;;;;;6.92;5.55;;;;;;;20.76;86.27;98774.52;1662010;85;20995;-74
2021/07/03 04:18:10;;;;;;;6.40;4.50;;;;;;;20.78;86.30;98768.70;1673717;85;21019;-75
2021/07/03 04:20:36;;;;;;;9.70;5.30;;;;;;;20.79;86.45;98765.63;1674159;85;21035;-76
2021/07/03 04:23:03;;;;;;;12.40;6.28;;;;;;;20.81;86.44;98767.44;1674074;85;21954;-74
2021/07/03 04:25:30;;;;;;;8.83;5.40;;;;;;;20.86;86.47;98766.45;1673656;85;21099;-76
2021/07/03 04:27:57;;;;;;;10.28;5.50;;;;;;;20.94;86.46;98763.38;1673759;85;21039;-74
2021/07/03 04:30:24;;;;;;;6.83;4.72;;;;;;;21.08;86.12;98762.47;1673482;85;21114;-74
2021/07/03 04:32:51;;;;;;;9.75;6.45;;;;;;;21.20;85.53;98761.91;1674076;85;21066;-75
2021/07/03 04:35:19;;;;;;;9.13;5.55;;;;;;;21.27;84.94;98762.72;1673340;85;21095;-75
2021/07/03 04:37:46;;;;;;;12.53;7.45;;;;;;;21.31;84.57;98767.16;1659822;85;21117;-76
2021/07/03 04:40:13;;;;;;;13.55;6.78;;;;;;;21.31;84.35;98761.69;1642748;86;21029;-75
2021/07/03 04:42:40;;;;;;;12.70;10.60;;;;;;;21.33;84.14;98767.39;1665607;86;21080;-75
2021/07/03 04:45:10;;;;;;;13.08;9.03;;;;;;;21.33;83.92;98770.13;1665422;85;21012;-75
2021/07/03 04:47:37;;;;;;;9.58;6.25;;;;;;;21.31;84.02;98764.99;1665688;86;21884;-76
2021/07/03 04:50:06;;;;;;;7.15;5.72;;;;;;;21.28;84.25;98762.39;1665567;85;21013;-77
2021/07/03 04:52:34;;;;;;;8.48;5.83;;;;;;;21.26;84.22;98761.12;1665724;86;21532;-76
2021/07/03 04:55:06;;;;;;;12.75;5.50;;;;;;;21.27;84.34;98762.72;1665482;86;21179;-76
2021/07/03 04:57:33;;;;;;;7.37;6.60;;;;;;;21.33;84.13;98761.92;1665236;86;21056;-74
2021/07/03 05:00:00;;;;;;;9.75;7.50;;;;;;;21.20;85.04;98762.48;1665625;86;21191;-74
2021/07/03 05:02:27;;;;;;;9.98;7.03;;;;;;;21.03;85.76;98761.33;1665797;86;21575;-75
2021/07/03 05:04:54;;;;;;;11.85;7.15;;;;;;;20.94;86.77;98762.00;1666527;86;21078;-73
2021/07/03 05:07:21;;;;;;;6.62;5.15;;;;;;;20.97;86.32;98757.21;1665786;86;21157;-73
2021/07/03 05:09:50;;;;;;;14.38;6.35;;;;;;;21.09;86.10;98757.23;1665649;86;20961;-74
2021/07/03 05:12:16;;;;;;;9.90;7.33;;;;;;;21.13;85.56;98756.77;1669799;85;21141;-74
2021/07/03 05:14:45;;;;;;;9.53;8.10;;;;;;;21.21;85.34;98766.25;1675604;85;21030;-75
2021/07/03 05:17:11;;;;;;;9.63;8.00;;;;;;;21.32;85.25;98762.49;1669718;85;20996;-74
2021/07/03 05:19:38;;;;;;;9.43;5.35;;;;;;;21.41;84.72;98757.69;1665519;86;20979;-75
2021/07/03 05:22:08;;;;;;;8.35;7.42;;;;;;;21.52;84.54;98749.25;1648496;87;21084;-75
2021/07/03 05:24:35;;;;;;;14.25;6.67;;;;;;;21.68;84.02;98741.09;1647964;87;21168;-76
2021/07/03 05:27:04;;;;;;;13.13;9.00;;;;;;;21.80;82.85;98737.54;1648460;85;20996;-75
2021/07/03 05:29:32;;;;;;;7.90;6.83;;;;;;;21.84;82.39;98741.17;1649907;86;20993;-75
2021/07/03 05:31:59;;;;;;;9.58;7.25;;;;;;;21.89;82.19;98738.99;1648352;87;21093;-74
2021/07/03 05:34:25;;;;;;;8.13;7.03;;;;;;;21.99;81.99;98735.80;1648135;87;21021;-74
2021/07/03 05:36:52;;;;;;;9.78;8.85;;;;;;;22.09;81.48;98741.35;1648478;87;21239;-74
2021/07/03 05:39:20;;;;;;;11.20;8.05;;;;;;;22.16;81.24;98740.16;1658042;86;20933;-75
2021/07/03 05:41:47;;;;;;;8.93;8.00;;;;;;;22.25;80.89;98744.14;1658302;86;21049;-75
2021/07/03 05:44:13;;;;;;;13.55;9.63;;;;;;;22.29;80.33;98743.09;1658223;85;21419;-75
2021/07/03 05:46:41;;;;;;;10.58;9.50;;;;;;;22.18;80.88;98743.36;1659081;86;20928;-75
2021/07/03 05:49:08;;;;;;;12.73;9.83;;;;;;;22.12;81.38;98746.12;1659853;86;21158;-74
2021/07/03 05:51:36;;;;;;;14.28;11.70;;;;;;;22.11;81.60;98747.26;1660371;86;20960;-75
2021/07/03 05:54:03;;;;;;;22.00;14.75;;;;;;;22.21;81.24;98744.02;1676128;85;21035;-77
2021/07/03 05:56:31;;;;;;;16.35;13.20;;;;;;;22.33;80.68;98742.61;1675486;85;21027;-75
2021/07/03 05:59:01;;;;;;;13.98;12.58;;;;;;;22.36;80.34;98751.48;1675679;85;21308;-74
2021/07/03 06:01:26;;;;;;;15.10;11.85;;;;;;;22.35;80.14;98752.63;1675624;84;21167;-77
2021/07/03 06:03:53;;;;;;;20.82;11.50;;;;;;;22.40;80.05;98751.00;1672259;85;21001;-74
2021/07/03 06:06:20;;;;;;;14.55;12.20;;;;;;;22.52;79.70;98751.52;1662571;85;20963;-71
2021/07/03 06:08:47;;;;;;;17.98;11.97;;;;;;;22.61;79.34;98758.43;1646804;87;21493;-73
2021/07/03 06:11:15;;;;;;;14.43;13.03;;;;;;;22.67;79.01;98752.12;1670439;85;21062;-72
2021/07/03 06:13:42;;;;;;;11.30;8.98;;;;;;;22.74;79.00;98754.25;1665461;85;21166;-75
2021/07/03 06:16:09;;;;;;;12.23;11.12;;;;;;;22.91;79.12;98758.04;1655510;86;21005;-71
2021/07/03 06:18:36;;;;;;;15.40;11.05;;;;;;;23.02;78.47;98751.66;1675517;85;21050;-72
2021/07/03 06:21:03;;;;;;;11.80;10.60;;;;;;;23.03;78.07;98760.11;1675588;85;21070;-71
2021/07/03 06:23:30;;;;;;;13.40;12.23;;;;;;;23.05;77.87;98758.39;1670576;85;21614;-71
2021/07/03 06:26:00;;;;;;;13.13;11.88;;;;;;;23.03;77.94;98755.98;1649615;85;21090;-72
2021/07/03 06:28:27;;;;;;;13.95;12.55;;;;;;;23.00;78.41;98749.85;1661690;85;21571;-73
2021/07/03 06:30:55;;;;;;;12.68;11.48;;;;;;;23.04;78.44;98748.56;1660409;84;21043;-74
2021/07/03 06:33:22;;;;;;;13.45;11.48;;;;;;;23.04;78.33;98752.67;1671314;85;20991;-73
2021/07/03 06:35:51;;;;;;;12.82;11.55;;;;;;;23.06;78.32;98753.70;1664578;85;21054;-73
2021/07/03 06:38:17;;;;;;;16.27;10.78;;;;;;;23.12;78.17;98757.77;1680698;84;21188;-72
2021/07/03 06:40:44;;;;;;;16.52;10.43;;;;;;;23.20;77.93;98756.21;1637963;87;21005;-70
2021/07/03 06:43:12;;;;;;;18.17;12.25;;;;;;;23.24;77.91;98754.34;1642514;87;21073;-72
2021/07/03 06:45:40;;;;;;;14.35;12.53;;;;;;;23.29;77.60;98758.19;1647582;85;21091;-72
2021/07/03 06:48:08;;;;;;;17.07;12.82;;;;;;;23.37;77.40;98760.51;1665279;85;20996;-72
2021/07/03 06:50:36;;;;;;;17.02;13.65;;;;;;;23.37;76.80;98754.45;1640518;85;21105;-72
2021/07/03 06:53:02;;;;;;;12.45;11.30;;;;;;;23.34;76.70;98755.74;1637657;86;21548;-72
2021/07/03 06:55:29;;;;;;;13.32;11.97;;;;;;;23.35;76.92;98750.48;1658552;85;21047;-70
2021/07/03 06:57:56;;;;;;;13.18;11.88;;;;;;;23.45;76.83;98759.57;1648313;87;21069;-70
2021/07/03 07:00:24;;;;;;;14.05;12.25;;;;;;;23.57;76.34;98756.69;1636382;87;21012;-71
2021/07/03 07:02:51;;;;;;;15.53;11.93;;;;;;;23.69;75.79;98762.05;1642499;86;21548;-70
2021/07/03 07:05:19;;;;;;;12.25;11.05;;;;;;;23.84;75.79;98758.45;1665551;86;20995;-71
2021/07/03 07:07:48;;;;;;;11.83;10.58;;;;;;;23.99;74.61;98764.24;1647312;86;21040;-70
2021/07/03 07:10:17;;;;;;;14.43;10.72;;;;;;;24.08;73.57;98762.88;1644704;87;20937;-70
2021/07/03 07:12:46;;;;;;;12.65;11.53;;;;;;;24.18;72.90;98760.95;1637411;87;21582;-73
2021/07/03 07:15:13;;;;;;;12.78;11.08;;;;;;;24.23;72.42;98770.85;1647931;87;21881;-72
2021/07/03 07:17:41;;;;;;;18.20;11.97;;;;;;;24.20;72.34;98768.27;1647985;87;21008;-71
2021/07/03 07:20:11;;;;;;;12.07;9.83;;;;;;;24.23;72.43;98770.85;1665792;85;20991;-73
2021/07/03 07:22:40;;;;;;;23.70;15.10;;;;;;;24.35;72.02;98769.34;1648106;85;20996;-71
2021/07/03 07:25:09;;;;;;;19.60;13.15;;;;;;;24.43;71.25;98766.94;1648305;87;21081;-72
2021/07/03 07:27:37;;;;;;;11.75;10.65;;;;;;;24.50;70.61;98764.91;1648260;87;21822;-71
2021/07/03 07:30:07;;;;;;;11.70;10.10;;;;;;;24.58;70.32;98767.42;1648136;86;21004;-70
2021/07/03 07:32:34;;;;;;;11.03;9.98;;;;;;;24.66;69.58;98765.58;1642313;87;21021;-71
2021/07/03 07:35:01;;;;;;;9.53;8.65;;;;;;;24.72;69.36;98773.17;1648465;87;21016;-72
2021/07/03 07:37:29;;;;;;;14.43;9.63;;;;;;;24.83;68.79;98769.82;1648307;86;21533;-71
2021/07/03 07:39:56;;;;;;;12.05;9.43;;;;;;;24.94;67.90;98774.36;1662023;84;21760;-72
2021/07/03 07:42:23;;;;;;;10.00;8.33;;;;;;;25.02;67.58;98773.33;1626167;87;21021;-72
2021/07/03 07:44:49;;;;;;;14.10;9.43;;;;;;;25.08;67.15;98780.70;1654518;84;21021;-70
2021/07/03 07:47:16;;;;;;;13.48;8.50;;;;;;;25.03;66.83;98780.44;1672375;85;21040;-71
2021/07/03 07:49:43;;;;;;;10.93;9.55;;;;;;;25.01;66.85;98780.57;1672762;85;21522;-74
2021/07/03 07:52:11;;;;;;;12.25;8.88;;;;;;;24.95;67.37;98782.83;1672890;85;21172;-74
2021/07/03 07:54:38;;;;;;;10.72;9.63;;;;;;;24.88;67.56;98777.22;1672639;85;20999;-71
2021/07/03 07:57:05;;;;;;;7.95;7.25;;;;;;;24.85;67.51;98777.11;1672705;85;21472;-72
2021/07/03 07:59:32;;;;;;;8.83;7.62;;;;;;;24.85;67.46;98783.41;1672805;85;21027;-71
2021/07/03 08:01:59;;;;;;;8.85;7.95;;;;;;;24.92;66.87;98779.45;1673063;85;21112;-71
2021/07/03 08:04:26;;;;;;;8.35;6.87;;;;;;;24.95;66.58;98772.41;1673112;85;23351;-70
2021/07/03 08:06:55;;;;;;;11.50;8.25;;;;;;;25.01;66.87;98781.95;1672570;85;21077;-70
2021/07/03 08:09:23;;;;;;;18.15;7.65;;;;;;;25.13;66.62;98779.02;1672694;85;21051;-72
2021/07/03 08:11:49;;;;;;;8.00;6.72;;;;;;;25.21;65.68;98779.34;1672582;85;21508;-71
2021/07/03 08:14:16;;;;;;;11.88;7.10;;;;;;;25.28;65.57;98768.42;1672767;85;21542;-69
2021/07/03 08:16:45;;;;;;;9.10;6.28;;;;;;;25.41;65.32;98772.58;1672590;85;21103;-71
2021/07/03 08:19:12;;;;;;;8.78;7.42;;;;;;;25.53;64.34;98769.59;1672688;85;21515;-72
2021/07/03 08:21:39;;;;;;;9.88;6.72;;;;;;;25.66;64.03;98768.81;1672737;85;21546;-73
2021/07/03 08:24:06;;;;;;;9.48;6.58;;;;;;;25.71;63.37;98771.25;1672943;85;21097;-72
2021/07/03 08:26:33;;;;;;;8.33;5.60;;;;;;;25.80;62.89;98771.00;1672576;85;21031;-71
2021/07/03 08:29:01;;;;;;;8.55;7.47;;;;;;;25.93;62.80;98777.86;1672929;85;21162;-74
2021/07/03 08:31:30;;;;;;;6.33;5.72;;;;;;;26.01;63.13;98780.33;1673142;84;21005;-73
2021/07/03 08:33:57;;;;;;;6.67;5.83;;;;;;;26.08;61.69;98782.97;1673099;85;21650;-73
2021/07/03 08:36:23;;;;;;;7.85;6.70;;;;;;;26.09;61.59;98779.05;1672023;85;21065;-73
2021/07/03 08:38:51;;;;;;;6.58;6.00;;;;;;;26.09;61.90;98778.44;1672762;84;21085;-72
2021/07/03 08:41:18;;;;;;;10.55;6.72;;;;;;;26.14;62.15;98780.86;1672860;85;21165;-72
2021/07/03 08:43:47;;;;;;;6.25;5.53;;;;;;;26.24;62.66;98780.23;1672671;85;21056;-72
2021/07/03 08:46:15;;;;;;;7.47;6.15;;;;;;;26.33;62.54;98773.07;1673239;85;20940;-72
2021/07/03 08:48:42;;;;;;;7.10;6.05;;;;;;;26.48;61.91;98773.41;1673315;85;21054;-72
2021/07/03 08:51:09;;;;;;;7.12;5.67;;;;;;;26.60;61.34;98775.13;1671552;84;21587;-74
2021/07/03 08:53:35;;;;;;;10.18;6.40;;;;;;;26.67;61.23;98766.31;1673056;85;21061;-72
2021/07/03 08:56:03;;;;;;;10.63;7.28;;;;;;;26.74;61.31;98771.12;1667333;85;20959;-74
2021/07/03 08:58:29;;;;;;;10.43;9.50;;;;;;;26.78;60.37;98767.22;1667757;85;21040;-72
2021/07/03 09:00:56;;;;;;;9.50;7.60;;;;;;;26.78;60.39;98774.70;1672632;85;21071;-74
2021/07/03 09:03:26;;;;;;;9.78;7.17;;;;;;;26.70;60.67;98768.92;1672768;85;21539;-72
2021/07/03 09:05:58;;;;;;;6.67;5.55;;;;;;;26.63;60.76;98773.77;1673126;85;21754;-74
2021/07/03 09:08:27;;;;;;;7.03;6.17;;;;;;;26.56;60.85;98764.64;1672422;85;21558;-74
2021/07/03 09:11:08;;;;;;;8.38;5.62;;;;;;;26.45;60.46;98764.52;1645282;85;21064;-74
2021/07/03 09:13:37;;;;;;;6.78;5.72;;;;;;;26.36;60.39;98771.72;1672775;85;21076;-75
2021/07/03 09:16:05;;;;;;;10.48;5.90;;;;;;;26.28;60.39;98770.65;1672603;85;21225;-74
2021/07/03 09:18:32;;;;;;;11.75;6.17;;;;;;;26.21;60.76;98768.59;1673066;85;21165;-73
2021/07/03 09:21:05;;;;;;;8.13;7.33;;;;;;;26.19;61.23;98781.11;1673028;85;20984;-74
2021/07/03 09:23:35;;;;;;;7.53;6.80;;;;;;;26.02;62.17;98770.09;1672859;85;21003;-72
2021/07/03 09:26:04;;;;;;;9.78;8.78;;;;;;;25.88;63.90;98778.98;1672933;85;21074;-74
2021/07/03 09:28:34;;;;;;;14.18;9.03;;;;;;;25.74;64.99;98787.63;1672839;85;21069;-74
2021/07/03 09:31:03;;;;;;;12.30;10.05;;;;;;;25.58;65.86;98789.17;1672766;85;21160;-75
2021/07/03 09:33:33;;;;;;;10.80;9.70;;;;;;;25.49;65.92;98792.74;1665187;85;21041;-72
2021/07/03 09:36:05;;;;;;;17.75;8.58;;;;;;;25.43;66.65;98795.02;1673356;85;22219;-73
2021/07/03 09:38:38;;;;;;;10.10;7.72;;;;;;;25.25;69.59;98802.20;1672530;84;21088;-73
2021/07/03 09:41:33;;;;;;;21.17;9.18;;;;;;;25.03;70.78;98794.77;1672758;85;21097;-74
2021/07/03 09:44:07;;;;;;;11.18;7.47;;;;;;;24.76;71.86;98789.16;1672914;85;21300;-73
2021/07/03 09:46:40;;;;;;;12.50;11.13;;;;;;;24.64;72.50;98791.30;1658143;85;38628;-73
2021/07/03 09:49:11;;;;;;;11.05;7.95;;;;;;;24.58;74.22;98796.86;1672827;85;21524;-73
2021/07/03 09:51:50;;;;;;;10.48;7.45;;;;;;;24.47;75.32;98800.78;1672632;85;21072;-76
2021/07/03 09:54:19;;;;;;;9.98;6.95;;;;;;;24.42;74.81;98796.16;1685111;84;21546;-77
2021/07/03 09:56:46;;;;;;;9.38;7.10;;;;;;;24.16;76.32;98789.39;1673314;85;21133;-76
2021/07/03 09:59:13;;;;;;;10.32;7.53;;;;;;;23.94;77.55;98777.69;1643621;87;20945;-76
2021/07/03 10:01:42;;;;;;;12.58;9.75;;;;;;;23.81;77.98;98778.41;1678139;84;21035;-79
2021/07/03 10:04:10;;;;;;;9.98;7.53;;;;;;;23.70;79.05;98784.81;1634363;86;21049;-74
2021/07/03 10:06:50;;;;;;;8.53;7.62;;;;;;;23.76;79.60;98784.18;1655695;85;21039;-73
2021/07/03 10:09:36;;;;;;;7.37;6.53;;;;;;;23.87;80.21;98779.73;1672658;85;21156;-75
2021/07/03 10:12:09;;;;;;;8.88;7.05;;;;;;;24.07;80.48;98787.41;1666446;85;21089;-73
2021/07/03 10:14:44;;;;;;;13.22;7.55;;;;;;;24.24;80.41;98795.81;1644776;85;21013;-76
2021/07/03 10:17:11;;;;;;;10.32;6.83;;;;;;;24.32;80.21;98785.97;1646259;85;21088;-74
2021/07/03 10:19:40;;;;;;;7.35;6.65;;;;;;;24.35;78.41;98775.41;1673930;85;21012;-71
2021/07/03 10:22:14;;;;;;;10.43;6.60;;;;;;;24.35;78.60;98777.59;1672038;85;21027;-73
2021/07/03 10:24:48;;;;;;;8.30;6.95;;;;;;;24.35;77.97;98776.79;1651657;85;21083;-72
2021/07/03 10:27:25;;;;;;;9.13;6.40;;;;;;;24.32;78.50;98766.72;1644189;87;21084;-74
2021/07/03 10:29:54;;;;;;;6.20;5.53;;;;;;;24.40;77.80;98757.25;1665852;85;21043;-72
2021/07/03 10:32:29;;;;;;;7.80;5.03;;;;;;;24.28;72.93;98756.24;1671100;85;21077;-72
2021/07/03 10:35:13;;;;;;;5.60;4.17;;;;;;;24.19;71.68;98752.93;1672906;85;21120;-73
2021/07/03 10:37:42;;;;;;;11.48;5.20;;;;;;;24.13;72.04;98754.34;1672599;85;21103;-73
2021/07/03 10:40:22;;;;;;;7.92;6.30;;;;;;;24.17;74.08;98764.84;1674925;85;21089;-73
2021/07/03 10:42:52;;;;;;;6.55;5.40;;;;;;;24.16;74.19;98770.70;1697610;82;21602;-74
2021/07/03 10:45:22;;;;;;;6.15;5.33;;;;;;;24.06;74.52;98780.31;1676540;85;21066;-74
2021/07/03 10:47:51;;;;;;;6.87;3.72;;;;;;;24.07;71.82;98786.61;1675639;85;21112;-75
2021/07/03 10:50:29;;;;;;;5.87;3.52;;;;;;;23.98;69.95;98779.92;1675265;85;21090;-80
2021/07/03 10:52:57;;;;;;;4.37;3.98;;;;;;;23.96;70.81;98786.95;1693454;84;20963;-74
2021/07/03 10:55:35;;;;;;;3.60;3.30;;;;;;;23.94;70.83;98776.89;1644602;87;21131;-79
2021/07/03 10:58:27;;;;;;;8.70;3.92;;;;;;;24.00;71.30;98774.87;1668167;85;21546;-76
2021/07/03 11:01:11;;;;;;;12.75;4.33;;;;;;;24.09;72.13;98769.16;1642236;87;21947;-75
2021/07/03 11:03:44;;;;;;;9.53;4.40;;;;;;;24.21;72.11;98769.86;1674813;85;20931;-75
2021/07/03 11:06:19;;;;;;;9.83;4.85;;;;;;;24.40;71.85;98769.62;1679156;84;20987;-75
2021/07/03 11:08:46;;;;;;;8.58;4.47;;;;;;;24.52;70.34;98763.38;1676274;85;21131;-73
2021/07/03 11:11:15;;;;;;;8.30;4.72;;;;;;;24.67;70.13;98761.67;1670717;85;21101;-74
2021/07/03 11:13:44;;;;;;;11.55;6.42;;;;;;;24.75;69.03;98766.93;1666439;85;21532;-74
2021/07/03 11:16:12;;;;;;;14.05;5.87;;;;;;;24.85;68.36;98762.77;1614496;87;21067;-71
2021/07/03 11:18:41;;;;;;;10.88;5.33;;;;;;;24.87;68.23;98763.25;1676210;84;21027;-74
2021/07/03 11:21:09;;;;;;;7.55;5.92;;;;;;;24.83;69.65;98756.06;1676268;84;21063;-71
2021/07/03 11:23:36;;;;;;;6.87;5.95;;;;;;;24.85;69.18;98749.59;1680785;84;21058;-71
2021/07/03 11:26:11;;;;;;;12.95;6.37;;;;;;;24.93;68.72;98749.98;1663240;84;21211;-73
2021/07/03 11:28:38;;;;;;;10.65;6.15;;;;;;;24.97;69.13;98750.26;1650692;84;20999;-71
2021/07/03 11:31:05;;;;;;;9.50;7.37;;;;;;;25.03;68.98;98737.78;1633587;85;21061;-71
2021/07/03 11:33:35;;;;;;;7.97;7.28;;;;;;;25.21;68.19;98738.05;1644637;87;21552;-72
2021/07/03 11:36:04;;;;;;;8.30;7.30;;;;;;;25.35;67.82;98738.27;1647967;85;21572;-73